sensor_id;sensor_type;location;lat;lon;timestamp;temperature;humidity
38398;DHT22;24179;52.094;4.408;2023-07-29T02:00:52;16.40;99.90
38398;DHT22;24179;52.094;4.408;2023-07-29T02:03:53;16.40;99.90
38398;DHT22;24179;52.094;4.408;2023-07-29T02:06:55;16.60;99.90
38398;DHT22;24179;52.094;4.408;2023-07-29T02:09:56;16.60;99.90
38398;DHT22;24179;52.094;4.408;2023-07-29T02:12:56;16.80;99.90
38398;DHT22;24179;52.094;4.408;2023-07-29T02:15:56;16.80;99.90
38398;DHT22;24179;52.094;4.408;2023-07-29T02:18:57;16.90;99.90
38398;DHT22;24179;52.094;4.408;2023-07-29T02:21:57;16.90;99.90
38398;DHT22;24179;52.094;4.408;2023-07-29T02:24:58;17.00;99.90
38398;DHT22;24179;52.094;4.408;2023-07-29T02:27:58;16.90;99.90
38398;DHT22;24179;52.094;4.408;2023-07-29T02:31:09;16.90;99.90
38398;DHT22;24179;52.094;4.408;2023-07-29T02:34:11;16.90;99.90
38398;DHT22;24179;52.094;4.408;2023-07-29T02:37:11;16.90;99.90
38398;DHT22;24179;52.094;4.408;2023-07-29T02:40:11;17.00;99.90
38398;DHT22;24179;52.094;4.408;2023-07-29T02:43:12;16.90;99.90
38398;DHT22;24179;52.094;4.408;2023-07-29T02:46:12;17.00;99.90
38398;DHT22;24179;52.094;4.408;2023-07-29T02:49:13;17.00;99.90
38398;DHT22;24179;52.094;4.408;2023-07-29T02:52:13;17.00;99.90
38398;DHT22;24179;52.094;4.408;2023-07-29T02:55:17;17.00;99.90
38398;DHT22;24179;52.094;4.408;2023-07-29T02:58:20;17.00;99.90
38398;DHT22;24179;52.094;4.408;2023-07-29T03:01:22;17.00;99.90
38398;DHT22;24179;52.094;4.408;2023-07-29T03:04:26;17.00;99.90
38398;DHT22;24179;52.094;4.408;2023-07-29T03:07:26;17.10;99.90
38398;DHT22;24179;52.094;4.408;2023-07-29T03:10:27;17.10;99.90
38398;DHT22;24179;52.094;4.408;2023-07-29T03:13:30;17.20;99.90
38398;DHT22;24179;52.094;4.408;2023-07-29T03:16:30;17.20;99.90
38398;DHT22;24179;52.094;4.408;2023-07-29T03:19:31;17.10;99.90
38398;DHT22;24179;52.094;4.408;2023-07-29T03:22:31;17.20;99.90
38398;DHT22;24179;52.094;4.408;2023-07-29T03:25:32;17.30;99.90
38398;DHT22;24179;52.094;4.408;2023-07-29T03:28:33;17.40;99.90
38398;DHT22;24179;52.094;4.408;2023-07-29T03:31:33;17.40;99.90
38398;DHT22;24179;52.094;4.408;2023-07-29T03:34:34;17.40;99.90
38398;DHT22;24179;52.094;4.408;2023-07-29T03:37:34;17.40;99.90
38398;DHT22;24179;52.094;4.408;2023-07-29T03:40:35;17.50;99.90
38398;DHT22;24179;52.094;4.408;2023-07-29T03:43:35;17.50;99.90
38398;DHT22;24179;52.094;4.408;2023-07-29T03:46:36;17.50;99.90
38398;DHT22;24179;52.094;4.408;2023-07-29T03:49:36;17.50;99.90
38398;DHT22;24179;52.094;4.408;2023-07-29T03:52:37;17.60;99.90
38398;DHT22;24179;52.094;4.408;2023-07-29T03:55:37;17.60;99.90
38398;DHT22;24179;52.094;4.408;2023-07-29T03:58:45;17.60;99.90
38398;DHT22;24179;52.094;4.408;2023-07-29T04:01:49;17.60;99.90
38398;DHT22;24179;52.094;4.408;2023-07-29T04:04:50;17.60;99.90
38398;DHT22;24179;52.094;4.408;2023-07-29T04:07:53;17.70;99.90
38398;DHT22;24179;52.094;4.408;2023-07-29T04:10:54;17.70;99.90
38398;DHT22;24179;52.094;4.408;2023-07-29T04:13:54;17.70;99.90
38398;DHT22;24179;52.094;4.408;2023-07-29T04:16:55;17.60;99.90
38398;DHT22;24179;52.094;4.408;2023-07-29T04:19:57;17.60;99.90
38398;DHT22;24179;52.094;4.408;2023-07-29T04:22:57;17.60;99.90
38398;DHT22;24179;52.094;4.408;2023-07-29T04:25:58;17.60;99.90
38398;DHT22;24179;52.094;4.408;2023-07-29T04:28:58;17.70;99.90
38398;DHT22;24179;52.094;4.408;2023-07-29T04:31:59;17.70;99.90
38398;DHT22;24179;52.094;4.408;2023-07-29T04:35:03;17.70;99.90
38398;DHT22;24179;52.094;4.408;2023-07-29T04:38:03;17.80;99.90
38398;DHT22;24179;52.094;4.408;2023-07-29T04:41:04;17.80;99.90
38398;DHT22;24179;52.094;4.408;2023-07-29T04:44:07;17.80;99.90
38398;DHT22;24179;52.094;4.408;2023-07-29T04:47:07;17.80;99.90
38398;DHT22;24179;52.094;4.408;2023-07-29T04:50:08;17.80;99.90
38398;DHT22;24179;52.094;4.408;2023-07-29T04:53:09;17.80;99.90
38398;DHT22;24179;52.094;4.408;2023-07-29T04:56:09;17.80;99.90
38398;DHT22;24179;52.094;4.408;2023-07-29T04:59:10;17.80;99.90
38398;DHT22;24179;52.094;4.408;2023-07-29T05:02:13;17.80;99.90
38398;DHT22;24179;52.094;4.408;2023-07-29T05:05:13;17.80;99.90
38398;DHT22;24179;52.094;4.408;2023-07-29T05:08:14;17.80;99.90
38398;DHT22;24179;52.094;4.408;2023-07-29T05:11:14;17.80;99.90
38398;DHT22;24179;52.094;4.408;2023-07-29T05:14:15;17.90;99.90
38398;DHT22;24179;52.094;4.408;2023-07-29T05:17:16;18.00;99.90
38398;DHT22;24179;52.094;4.408;2023-07-29T05:20:19;18.00;99.90
38398;DHT22;24179;52.094;4.408;2023-07-29T05:23:20;18.00;99.90
38398;DHT22;24179;52.094;4.408;2023-07-29T05:26:20;18.10;99.90
38398;DHT22;24179;52.094;4.408;2023-07-29T05:29:21;18.10;99.90
38398;DHT22;24179;52.094;4.408;2023-07-29T05:32:21;18.20;99.90
38398;DHT22;24179;52.094;4.408;2023-07-29T05:35:22;18.30;99.90
38398;DHT22;24179;52.094;4.408;2023-07-29T05:38:23;18.30;99.90
38398;DHT22;24179;52.094;4.408;2023-07-29T05:41:24;18.40;99.90
38398;DHT22;24179;52.094;4.408;2023-07-29T05:44:26;18.30;99.90
38398;DHT22;24179;52.094;4.408;2023-07-29T05:47:26;18.40;99.90
38398;DHT22;24179;52.094;4.408;2023-07-29T05:50:27;18.50;99.90
38398;DHT22;24179;52.094;4.408;2023-07-29T05:53:27;18.50;99.90
38398;DHT22;24179;52.094;4.408;2023-07-29T05:56:28;18.60;99.90
38398;DHT22;24179;52.094;4.408;2023-07-29T05:59:28;18.60;99.90
38398;DHT22;24179;52.094;4.408;2023-07-29T06:02:29;18.50;99.90
38398;DHT22;24179;52.094;4.408;2023-07-29T06:05:30;18.50;99.90
38398;DHT22;24179;52.094;4.408;2023-07-29T06:08:30;18.50;99.90
38398;DHT22;24179;52.094;4.408;2023-07-29T06:11:33;18.50;99.90
38398;DHT22;24179;52.094;4.408;2023-07-29T06:14:33;18.70;99.90
38398;DHT22;24179;52.094;4.408;2023-07-29T06:17:34;18.70;99.90
38398;DHT22;24179;52.094;4.408;2023-07-29T06:20:34;18.70;99.90
38398;DHT22;24179;52.094;4.408;2023-07-29T06:23:35;18.70;99.90
38398;DHT22;24179;52.094;4.408;2023-07-29T06:26:35;18.80;99.90
38398;DHT22;24179;52.094;4.408;2023-07-29T06:29:36;18.90;99.90
38398;DHT22;24179;52.094;4.408;2023-07-29T06:32:36;18.90;99.90
38398;DHT22;24179;52.094;4.408;2023-07-29T06:35:41;18.90;99.90
38398;DHT22;24179;52.094;4.408;2023-07-29T06:38:41;18.80;99.90
38398;DHT22;24179;52.094;4.408;2023-07-29T06:41:42;18.90;99.90
38398;DHT22;24179;52.094;4.408;2023-07-29T06:44:42;19.00;99.90
38398;DHT22;24179;52.094;4.408;2023-07-29T06:47:46;19.20;99.90
38398;DHT22;24179;52.094;4.408;2023-07-29T06:50:47;19.10;99.90
38398;DHT22;24179;52.094;4.408;2023-07-29T06:53:48;19.00;99.90
38398;DHT22;24179;52.094;4.408;2023-07-29T06:56:48;19.10;99.90
38398;DHT22;24179;52.094;4.408;2023-07-29T06:59:52;19.50;99.90
38398;DHT22;24179;52.094;4.408;2023-07-29T07:02:52;20.10;99.90
38398;DHT22;24179;52.094;4.408;2023-07-29T07:05:52;19.90;99.90
38398;DHT22;24179;52.094;4.408;2023-07-29T07:08:53;19.30;99.90
38398;DHT22;24179;52.094;4.408;2023-07-29T07:11:53;19.40;99.90
38398;DHT22;24179;52.094;4.408;2023-07-29T07:14:54;19.20;99.90
38398;DHT22;24179;52.094;4.408;2023-07-29T07:17:54;19.40;99.90
38398;DHT22;24179;52.094;4.408;2023-07-29T07:20:55;19.60;99.90
38398;DHT22;24179;52.094;4.408;2023-07-29T07:23:55;20.20;99.90
38398;DHT22;24179;52.094;4.408;2023-07-29T07:26:56;20.00;99.90
38398;DHT22;24179;52.094;4.408;2023-07-29T07:29:56;20.00;99.90
38398;DHT22;24179;52.094;4.408;2023-07-29T07:32:58;19.80;99.90
38398;DHT22;24179;52.094;4.408;2023-07-29T07:35:59;19.60;99.90
38398;DHT22;24179;52.094;4.408;2023-07-29T07:38:59;19.60;99.90
38398;DHT22;24179;52.094;4.408;2023-07-29T07:42:02;19.60;99.90
38398;DHT22;24179;52.094;4.408;2023-07-29T07:45:04;19.60;99.90
38398;DHT22;24179;52.094;4.408;2023-07-29T07:48:05;19.70;99.90
38398;DHT22;24179;52.094;4.408;2023-07-29T07:51:11;19.80;99.90
38398;DHT22;24179;52.094;4.408;2023-07-29T07:54:12;19.90;99.90
38398;DHT22;24179;52.094;4.408;2023-07-29T07:57:12;20.00;99.90
38398;DHT22;24179;52.094;4.408;2023-07-29T08:00:13;20.30;99.90
38398;DHT22;24179;52.094;4.408;2023-07-29T08:03:17;20.50;99.90
38398;DHT22;24179;52.094;4.408;2023-07-29T08:06:17;20.60;99.90
38398;DHT22;24179;52.094;4.408;2023-07-29T08:09:18;21.20;99.90
38398;DHT22;24179;52.094;4.408;2023-07-29T08:12:18;21.20;99.90
38398;DHT22;24179;52.094;4.408;2023-07-29T08:15:19;20.80;99.90
38398;DHT22;24179;52.094;4.408;2023-07-29T08:18:19;20.30;99.90
38398;DHT22;24179;52.094;4.408;2023-07-29T08:21:20;20.20;99.90
38398;DHT22;24179;52.094;4.408;2023-07-29T08:24:21;20.20;99.90
38398;DHT22;24179;52.094;4.408;2023-07-29T08:27:21;20.60;99.90
38398;DHT22;24179;52.094;4.408;2023-07-29T08:30:22;21.00;99.90
38398;DHT22;24179;52.094;4.408;2023-07-29T08:33:22;20.90;99.90
38398;DHT22;24179;52.094;4.408;2023-07-29T08:36:23;20.90;99.90
38398;DHT22;24179;52.094;4.408;2023-07-29T08:39:23;21.20;99.90
38398;DHT22;24179;52.094;4.408;2023-07-29T08:42:24;21.20;99.90
38398;DHT22;24179;52.094;4.408;2023-07-29T08:45:27;20.80;99.90
38398;DHT22;24179;52.094;4.408;2023-07-29T08:48:50;20.80;99.90
38398;DHT22;24179;52.094;4.408;2023-07-29T08:51:50;20.50;99.90
38398;DHT22;24179;52.094;4.408;2023-07-29T08:54:53;20.80;99.90
38398;DHT22;24179;52.094;4.408;2023-07-29T08:57:54;20.90;99.90
38398;DHT22;24179;52.094;4.408;2023-07-29T09:00:54;20.50;99.90
38398;DHT22;24179;52.094;4.408;2023-07-29T09:03:55;20.80;99.90
38398;DHT22;24179;52.094;4.408;2023-07-29T09:06:55;20.90;99.90
38398;DHT22;24179;52.094;4.408;2023-07-29T09:09:56;20.90;99.90
38398;DHT22;24179;52.094;4.408;2023-07-29T09:12:57;20.80;99.90
38398;DHT22;24179;52.094;4.408;2023-07-29T09:16:04;20.70;99.90
38398;DHT22;24179;52.094;4.408;2023-07-29T09:19:04;20.40;99.90
38398;DHT22;24179;52.094;4.408;2023-07-29T09:22:05;20.40;99.90
38398;DHT22;24179;52.094;4.408;2023-07-29T09:25:22;20.60;99.90
38398;DHT22;24179;52.094;4.408;2023-07-29T09:28:22;20.80;99.90
38398;DHT22;24179;52.094;4.408;2023-07-29T09:31:24;20.70;99.90
38398;DHT22;24179;52.094;4.408;2023-07-29T09:34:25;20.00;99.90
38398;DHT22;24179;52.094;4.408;2023-07-29T09:37:25;19.70;99.90
38398;DHT22;24179;52.094;4.408;2023-07-29T09:40:26;19.60;99.90
38398;DHT22;24179;52.094;4.408;2023-07-29T09:43:30;19.60;99.90
38398;DHT22;24179;52.094;4.408;2023-07-29T09:46:32;19.90;99.90
38398;DHT22;24179;52.094;4.408;2023-07-29T09:49:36;20.10;99.90
38398;DHT22;24179;52.094;4.408;2023-07-29T09:52:37;20.30;99.90
38398;DHT22;24179;52.094;4.408;2023-07-29T09:55:37;20.50;99.90
38398;DHT22;24179;52.094;4.408;2023-07-29T09:58:38;20.40;99.90
38398;DHT22;24179;52.094;4.408;2023-07-29T10:01:39;20.20;99.90
38398;DHT22;24179;52.094;4.408;2023-07-29T10:04:41;20.20;99.90
38398;DHT22;24179;52.094;4.408;2023-07-29T10:07:41;19.90;99.90
38398;DHT22;24179;52.094;4.408;2023-07-29T10:10:43;19.80;99.90
38398;DHT22;24179;52.094;4.408;2023-07-29T10:13:47;19.60;99.90
38398;DHT22;24179;52.094;4.408;2023-07-29T10:16:48;19.50;99.90
38398;DHT22;24179;52.094;4.408;2023-07-29T10:19:49;19.30;99.90
38398;DHT22;24179;52.094;4.408;2023-07-29T10:22:50;19.00;99.90
38398;DHT22;24179;52.094;4.408;2023-07-29T10:25:55;18.90;99.90
38398;DHT22;24179;52.094;4.408;2023-07-29T10:28:55;19.10;99.90
38398;DHT22;24179;52.094;4.408;2023-07-29T10:32:02;19.30;99.90
38398;DHT22;24179;52.094;4.408;2023-07-29T10:35:03;19.50;99.90
38398;DHT22;24179;52.094;4.408;2023-07-29T10:38:04;19.90;99.90
38398;DHT22;24179;52.094;4.408;2023-07-29T10:41:05;20.10;99.90
38398;DHT22;24179;52.094;4.408;2023-07-29T10:44:05;20.10;99.90
38398;DHT22;24179;52.094;4.408;2023-07-29T10:47:28;19.90;99.90
38398;DHT22;24179;52.094;4.408;2023-07-29T10:50:29;19.60;99.90
38398;DHT22;24179;52.094;4.408;2023-07-29T10:53:30;19.50;99.90
38398;DHT22;24179;52.094;4.408;2023-07-29T10:56:35;19.30;99.90
38398;DHT22;24179;52.094;4.408;2023-07-29T10:59:35;19.10;99.90
38398;DHT22;24179;52.094;4.408;2023-07-29T11:02:36;19.20;99.90
38398;DHT22;24179;52.094;4.408;2023-07-29T11:05:42;19.30;99.90
38398;DHT22;24179;52.094;4.408;2023-07-29T11:08:43;19.90;99.90
38398;DHT22;24179;52.094;4.408;2023-07-29T11:11:44;20.30;99.90
38398;DHT22;24179;52.094;4.408;2023-07-29T11:14:45;20.20;99.90
38398;DHT22;24179;52.094;4.408;2023-07-29T11:17:49;20.10;99.90
38398;DHT22;24179;52.094;4.408;2023-07-29T11:20:53;20.20;99.90
38398;DHT22;24179;52.094;4.408;2023-07-29T11:23:54;20.10;99.90
38398;DHT22;24179;52.094;4.408;2023-07-29T11:26:54;20.10;99.90
38398;DHT22;24179;52.094;4.408;2023-07-29T11:29:59;20.20;99.90
38398;DHT22;24179;52.094;4.408;2023-07-29T11:32:59;20.30;99.90
38398;DHT22;24179;52.094;4.408;2023-07-29T11:36:02;20.60;99.90
38398;DHT22;24179;52.094;4.408;2023-07-29T11:39:09;20.70;99.90
38398;DHT22;24179;52.094;4.408;2023-07-29T11:42:12;20.80;99.90
38398;DHT22;24179;52.094;4.408;2023-07-29T11:45:13;20.80;99.90
38398;DHT22;24179;52.094;4.408;2023-07-29T11:48:14;21.00;99.90
38398;DHT22;24179;52.094;4.408;2023-07-29T11:51:14;21.60;99.90
38398;DHT22;24179;52.094;4.408;2023-07-29T11:54:15;21.90;99.90
38398;DHT22;24179;52.094;4.408;2023-07-29T11:57:16;21.60;99.90
38398;DHT22;24179;52.094;4.408;2023-07-29T12:00:17;21.70;99.90
38398;DHT22;24179;52.094;4.408;2023-07-29T12:03:18;21.60;99.90
38398;DHT22;24179;52.094;4.408;2023-07-29T12:06:19;21.60;99.90
38398;DHT22;24179;52.094;4.408;2023-07-29T12:09:19;22.00;99.90
38398;DHT22;24179;52.094;4.408;2023-07-29T12:12:21;23.10;99.90
38398;DHT22;24179;52.094;4.408;2023-07-29T12:15:25;24.70;99.90
38398;DHT22;24179;52.094;4.408;2023-07-29T12:18:30;24.30;99.90
38398;DHT22;24179;52.094;4.408;2023-07-29T12:21:31;23.80;99.90
38398;DHT22;24179;52.094;4.408;2023-07-29T12:24:32;24.20;99.90
38398;DHT22;24179;52.094;4.408;2023-07-29T12:27:33;23.60;99.90
38398;DHT22;24179;52.094;4.408;2023-07-29T12:30:33;23.10;99.90
38398;DHT22;24179;52.094;4.408;2023-07-29T12:33:37;23.00;99.90
38398;DHT22;24179;52.094;4.408;2023-07-29T12:36:43;23.10;99.90
38398;DHT22;24179;52.094;4.408;2023-07-29T12:39:44;22.90;99.90
38398;DHT22;24179;52.094;4.408;2023-07-29T12:42:44;22.80;99.90
38398;DHT22;24179;52.094;4.408;2023-07-29T12:45:45;23.00;99.90
38398;DHT22;24179;52.094;4.408;2023-07-29T12:48:46;23.40;99.90
38398;DHT22;24179;52.094;4.408;2023-07-29T12:51:46;24.90;99.90
38398;DHT22;24179;52.094;4.408;2023-07-29T12:54:47;24.30;99.90
38398;DHT22;24179;52.094;4.408;2023-07-29T12:57:47;23.50;99.90
38398;DHT22;24179;52.094;4.408;2023-07-29T13:00:48;23.40;99.90
38398;DHT22;24179;52.094;4.408;2023-07-29T13:03:48;23.70;99.90
38398;DHT22;24179;52.094;4.408;2023-07-29T13:06:49;23.10;99.90
38398;DHT22;24179;52.094;4.408;2023-07-29T13:09:49;22.70;99.90
38398;DHT22;24179;52.094;4.408;2023-07-29T13:12:50;22.20;99.90
38398;DHT22;24179;52.094;4.408;2023-07-29T13:15:50;22.40;99.90
38398;DHT22;24179;52.094;4.408;2023-07-29T13:18:51;22.50;99.90
38398;DHT22;24179;52.094;4.408;2023-07-29T13:21:51;22.50;99.90
38398;DHT22;24179;52.094;4.408;2023-07-29T13:24:52;22.50;99.90
38398;DHT22;24179;52.094;4.408;2023-07-29T13:27:52;23.10;99.90
38398;DHT22;24179;52.094;4.408;2023-07-29T13:30:53;24.10;99.90
38398;DHT22;24179;52.094;4.408;2023-07-29T13:33:53;24.30;99.90
38398;DHT22;24179;52.094;4.408;2023-07-29T13:36:54;24.60;99.90
38398;DHT22;24179;52.094;4.408;2023-07-29T13:39:54;24.70;99.90
38398;DHT22;24179;52.094;4.408;2023-07-29T13:42:55;24.70;99.90
38398;DHT22;24179;52.094;4.408;2023-07-29T13:45:55;25.30;99.90
38398;DHT22;24179;52.094;4.408;2023-07-29T13:48:56;25.50;99.90
38398;DHT22;24179;52.094;4.408;2023-07-29T13:51:56;25.80;99.90
38398;DHT22;24179;52.094;4.408;2023-07-29T13:54:56;26.30;99.90
38398;DHT22;24179;52.094;4.408;2023-07-29T13:57:57;26.70;99.90
38398;DHT22;24179;52.094;4.408;2023-07-29T14:00:57;25.60;99.90
38398;DHT22;24179;52.094;4.408;2023-07-29T14:03:58;25.90;99.90
38398;DHT22;24179;52.094;4.408;2023-07-29T14:06:59;25.40;99.90
38398;DHT22;24179;52.094;4.408;2023-07-29T14:09:59;26.10;99.90
38398;DHT22;24179;52.094;4.408;2023-07-29T14:12:59;27.30;99.90
38398;DHT22;24179;52.094;4.408;2023-07-29T14:16:03;27.30;99.90
38398;DHT22;24179;52.094;4.408;2023-07-29T14:19:03;26.70;99.90
38398;DHT22;24179;52.094;4.408;2023-07-29T14:22:07;26.60;99.90
38398;DHT22;24179;52.094;4.408;2023-07-29T14:25:07;26.40;99.90
38398;DHT22;24179;52.094;4.408;2023-07-29T14:28:08;25.50;99.90
38398;DHT22;24179;52.094;4.408;2023-07-29T14:31:08;25.50;99.90
38398;DHT22;24179;52.094;4.408;2023-07-29T14:34:09;24.80;99.90
38398;DHT22;24179;52.094;4.408;2023-07-29T14:37:09;25.60;99.90
38398;DHT22;24179;52.094;4.408;2023-07-29T14:40:10;26.40;99.90
38398;DHT22;24179;52.094;4.408;2023-07-29T14:43:10;25.70;99.90
38398;DHT22;24179;52.094;4.408;2023-07-29T14:46:11;25.40;99.90
38398;DHT22;24179;52.094;4.408;2023-07-29T14:49:11;26.00;99.90
38398;DHT22;24179;52.094;4.408;2023-07-29T14:52:15;26.30;99.90
38398;DHT22;24179;52.094;4.408;2023-07-29T14:55:15;26.00;99.90
38398;DHT22;24179;52.094;4.408;2023-07-29T14:58:16;25.90;99.90
38398;DHT22;24179;52.094;4.408;2023-07-29T15:01:17;26.70;99.90
38398;DHT22;24179;52.094;4.408;2023-07-29T15:04:17;26.30;99.90
38398;DHT22;24179;52.094;4.408;2023-07-29T15:07:18;25.90;99.90
38398;DHT22;24179;52.094;4.408;2023-07-29T15:10:19;25.70;99.90
38398;DHT22;24179;52.094;4.408;2023-07-29T15:13:20;26.00;99.90
38398;DHT22;24179;52.094;4.408;2023-07-29T15:16:22;25.80;99.90
38398;DHT22;24179;52.094;4.408;2023-07-29T15:19:23;26.30;99.90
38398;DHT22;24179;52.094;4.408;2023-07-29T15:22:23;26.10;99.90
38398;DHT22;24179;52.094;4.408;2023-07-29T15:25:24;26.90;99.90
38398;DHT22;24179;52.094;4.408;2023-07-29T15:28:25;26.90;99.90
38398;DHT22;24179;52.094;4.408;2023-07-29T15:31:25;25.90;99.90
38398;DHT22;24179;52.094;4.408;2023-07-29T15:34:26;26.60;99.90
38398;DHT22;24179;52.094;4.408;2023-07-29T15:37:26;27.20;99.90
38398;DHT22;24179;52.094;4.408;2023-07-29T15:40:27;26.00;99.90
38398;DHT22;24179;52.094;4.408;2023-07-29T15:43:27;25.80;99.90
38398;DHT22;24179;52.094;4.408;2023-07-29T15:46:28;26.40;99.90
38398;DHT22;24179;52.094;4.408;2023-07-29T15:49:28;26.90;99.90
38398;DHT22;24179;52.094;4.408;2023-07-29T15:52:29;26.80;99.90
38398;DHT22;24179;52.094;4.408;2023-07-29T15:55:32;25.90;99.90
38398;DHT22;24179;52.094;4.408;2023-07-29T15:58:33;26.40;99.90
38398;DHT22;24179;52.094;4.408;2023-07-29T16:01:33;26.90;99.90
38398;DHT22;24179;52.094;4.408;2023-07-29T16:04:34;25.70;99.50
38398;DHT22;24179;52.094;4.408;2023-07-29T16:07:34;25.80;99.90
38398;DHT22;24179;52.094;4.408;2023-07-29T16:10:35;25.80;99.90
38398;DHT22;24179;52.094;4.408;2023-07-29T16:13:36;25.50;99.90
38398;DHT22;24179;52.094;4.408;2023-07-29T16:16:36;25.30;99.60
38398;DHT22;24179;52.094;4.408;2023-07-29T16:19:51;25.60;99.70
38398;DHT22;24179;52.094;4.408;2023-07-29T16:22:52;25.80;98.70
38398;DHT22;24179;52.094;4.408;2023-07-29T16:25:53;26.40;98.00
38398;DHT22;24179;52.094;4.408;2023-07-29T16:28:53;26.10;98.10
38398;DHT22;24179;52.094;4.408;2023-07-29T16:31:57;25.30;98.10
38398;DHT22;24179;52.094;4.408;2023-07-29T16:34:57;24.40;98.50
38398;DHT22;24179;52.094;4.408;2023-07-29T16:37:57;24.00;99.00
38398;DHT22;24179;52.094;4.408;2023-07-29T16:40:59;23.90;99.40
38398;DHT22;24179;52.094;4.408;2023-07-29T16:44:00;23.70;99.90
38398;DHT22;24179;52.094;4.408;2023-07-29T16:47:00;23.30;99.90
38398;DHT22;24179;52.094;4.408;2023-07-29T16:50:01;22.70;99.90
38398;DHT22;24179;52.094;4.408;2023-07-29T16:53:01;22.20;99.90
38398;DHT22;24179;52.094;4.408;2023-07-29T16:56:05;22.00;99.90
38398;DHT22;24179;52.094;4.408;2023-07-29T16:59:05;21.90;99.90
38398;DHT22;24179;52.094;4.408;2023-07-29T17:02:06;21.80;99.90
38398;DHT22;24179;52.094;4.408;2023-07-29T17:05:07;21.80;99.90
38398;DHT22;24179;52.094;4.408;2023-07-29T17:08:07;21.90;99.90
38398;DHT22;24179;52.094;4.408;2023-07-29T17:11:08;21.60;99.90
38398;DHT22;24179;52.094;4.408;2023-07-29T17:14:08;21.60;99.90
38398;DHT22;24179;52.094;4.408;2023-07-29T17:17:09;22.20;99.90
38398;DHT22;24179;52.094;4.408;2023-07-29T17:20:09;21.40;99.90
38398;DHT22;24179;52.094;4.408;2023-07-29T17:23:10;21.30;99.90
38398;DHT22;24179;52.094;4.408;2023-07-29T17:26:11;21.30;99.90
38398;DHT22;24179;52.094;4.408;2023-07-29T17:29:11;21.20;99.90
38398;DHT22;24179;52.094;4.408;2023-07-29T17:32:11;21.10;99.90
38398;DHT22;24179;52.094;4.408;2023-07-29T17:35:12;21.10;99.90
38398;DHT22;24179;52.094;4.408;2023-07-29T17:38:14;21.00;99.90
38398;DHT22;24179;52.094;4.408;2023-07-29T17:41:14;21.00;99.90
38398;DHT22;24179;52.094;4.408;2023-07-29T17:44:15;21.00;99.90
38398;DHT22;24179;52.094;4.408;2023-07-29T17:47:15;20.90;99.90
38398;DHT22;24179;52.094;4.408;2023-07-29T17:50:18;21.00;99.90
38398;DHT22;24179;52.094;4.408;2023-07-29T17:53:20;21.10;99.90
38398;DHT22;24179;52.094;4.408;2023-07-29T17:56:21;21.00;99.90
38398;DHT22;24179;52.094;4.408;2023-07-29T17:59:22;20.90;99.90
38398;DHT22;24179;52.094;4.408;2023-07-29T18:02:22;20.80;99.90
38398;DHT22;24179;52.094;4.408;2023-07-29T18:05:22;20.60;99.90
38398;DHT22;24179;52.094;4.408;2023-07-29T18:08:23;20.60;99.90
38398;DHT22;24179;52.094;4.408;2023-07-29T18:11:24;20.50;99.90
38398;DHT22;24179;52.094;4.408;2023-07-29T18:14:24;20.60;99.90
38398;DHT22;24179;52.094;4.408;2023-07-29T18:17:27;20.50;99.90
38398;DHT22;24179;52.094;4.408;2023-07-29T18:20:28;20.40;99.90
38398;DHT22;24179;52.094;4.408;2023-07-29T18:23:28;20.40;99.90
38398;DHT22;24179;52.094;4.408;2023-07-29T18:26:29;20.40;99.90
38398;DHT22;24179;52.094;4.408;2023-07-29T18:29:29;20.40;99.90
38398;DHT22;24179;52.094;4.408;2023-07-29T18:32:32;20.40;99.90
38398;DHT22;24179;52.094;4.408;2023-07-29T18:35:32;20.20;99.90
38398;DHT22;24179;52.094;4.408;2023-07-29T18:38:33;20.10;99.90
38398;DHT22;24179;52.094;4.408;2023-07-29T18:41:33;20.00;99.90
38398;DHT22;24179;52.094;4.408;2023-07-29T18:44:34;19.90;99.90
38398;DHT22;24179;52.094;4.408;2023-07-29T18:47:34;19.90;99.90
38398;DHT22;24179;52.094;4.408;2023-07-29T18:50:34;19.80;99.90
38398;DHT22;24179;52.094;4.408;2023-07-29T18:53:36;19.70;99.90
38398;DHT22;24179;52.094;4.408;2023-07-29T18:56:38;19.60;99.90
38398;DHT22;24179;52.094;4.408;2023-07-29T18:59:39;19.60;99.90
38398;DHT22;24179;52.094;4.408;2023-07-29T19:02:40;19.50;99.90
38398;DHT22;24179;52.094;4.408;2023-07-29T19:05:41;19.50;99.90
38398;DHT22;24179;52.094;4.408;2023-07-29T19:08:42;19.40;99.90
38398;DHT22;24179;52.094;4.408;2023-07-29T19:11:44;19.40;99.90
38398;DHT22;24179;52.094;4.408;2023-07-29T19:14:45;19.30;99.90
38398;DHT22;24179;52.094;4.408;2023-07-29T19:17:46;19.20;99.90
38398;DHT22;24179;52.094;4.408;2023-07-29T19:20:50;19.20;99.90
38398;DHT22;24179;52.094;4.408;2023-07-29T19:23:52;19.10;99.90
38398;DHT22;24179;52.094;4.408;2023-07-29T19:26:52;19.00;99.90
38398;DHT22;24179;52.094;4.408;2023-07-29T19:29:53;19.00;99.90
38398;DHT22;24179;52.094;4.408;2023-07-29T19:32:55;19.00;99.90
38398;DHT22;24179;52.094;4.408;2023-07-29T19:35:57;18.90;99.90
38398;DHT22;24179;52.094;4.408;2023-07-29T19:38:58;18.80;99.90
38398;DHT22;24179;52.094;4.408;2023-07-29T19:41:58;18.70;99.90
38398;DHT22;24179;52.094;4.408;2023-07-29T19:44:59;18.70;99.90
38398;DHT22;24179;52.094;4.408;2023-07-29T19:47:59;18.70;99.90
38398;DHT22;24179;52.094;4.408;2023-07-29T19:51:03;18.70;99.90
38398;DHT22;24179;52.094;4.408;2023-07-29T19:54:04;18.60;99.90
38398;DHT22;24179;52.094;4.408;2023-07-29T19:57:07;18.60;99.90
38398;DHT22;24179;52.094;4.408;2023-07-29T20:00:11;18.60;99.90
38398;DHT22;24179;52.094;4.408;2023-07-29T20:03:12;18.50;99.90
38398;DHT22;24179;52.094;4.408;2023-07-29T20:06:12;18.50;99.90
38398;DHT22;24179;52.094;4.408;2023-07-29T20:09:13;18.50;99.90
38398;DHT22;24179;52.094;4.408;2023-07-29T20:12:13;18.50;99.90
38398;DHT22;24179;52.094;4.408;2023-07-29T20:15:14;18.50;99.90
38398;DHT22;24179;52.094;4.408;2023-07-29T20:18:14;18.50;99.90
38398;DHT22;24179;52.094;4.408;2023-07-29T20:21:15;18.60;99.90
38398;DHT22;24179;52.094;4.408;2023-07-29T20:24:15;18.50;99.90
38398;DHT22;24179;52.094;4.408;2023-07-29T20:27:15;18.50;99.90
38398;DHT22;24179;52.094;4.408;2023-07-29T20:30:19;18.50;99.90
38398;DHT22;24179;52.094;4.408;2023-07-29T20:33:19;18.50;99.90
38398;DHT22;24179;52.094;4.408;2023-07-29T20:36:20;18.50;99.90
38398;DHT22;24179;52.094;4.408;2023-07-29T20:39:20;18.50;99.90
38398;DHT22;24179;52.094;4.408;2023-07-29T20:42:24;18.60;99.90
38398;DHT22;24179;52.094;4.408;2023-07-29T20:45:25;18.50;99.90
38398;DHT22;24179;52.094;4.408;2023-07-29T20:48:25;18.50;99.90
38398;DHT22;24179;52.094;4.408;2023-07-29T20:51:26;18.50;99.90
38398;DHT22;24179;52.094;4.408;2023-07-29T20:54:27;18.50;99.90
38398;DHT22;24179;52.094;4.408;2023-07-29T20:57:27;18.40;99.90
38398;DHT22;24179;52.094;4.408;2023-07-29T21:00:30;18.40;99.90
38398;DHT22;24179;52.094;4.408;2023-07-29T21:03:34;18.50;99.90